Time;durP1;ratioP1;P1;durP2;ratioP2;P2;SDS_P1;SDS_P2;PMS_P1;PMS_P2;Temp;Humidity;BMP_temperature;BMP_pressure;BME280_temperature;BME280_humidity;BME280_pressure;Samples;Min_cycle;Max_cycle;Signal;HPM_P1;HPM_P2
2024/03/14 00:01:21;;;;;;;;;;;;;;;8.31;100.00;95833.34;10578480;27;2906;-69
2024/03/14 00:06:24;;;;;;;;;;;;;;;8.29;100.00;95814.06;10547696;28;2900;-68
2024/03/14 00:11:26;;;;;;;;;;;;;;;8.32;100.00;95813.53;10542040;28;2861;-68
2024/03/14 00:16:30;;;;;;;;;;;;;;;8.32;100.00;95800.94;10521499;28;2820;-68
2024/03/14 00:21:33;;;;;;;;;;;;;;;8.34;100.00;95798.03;10515038;28;2797;-66
2024/03/14 00:26:36;;;;;;;;;;;;;;;8.29;100.00;95792.63;10520561;28;2796;-72
2024/03/14 00:31:39;;;;;;;;;;;;;;;8.20;100.00;95794.16;10514011;28;2813;-71
2024/03/14 00:36:42;;;;;;;;;;;;;;;8.05;100.00;95779.63;10514770;28;2942;-75
2024/03/14 00:41:45;;;;;;;;;;;;;;;7.91;100.00;95773.09;10517358;28;2844;-69
2024/03/14 00:46:47;;;;;;;;;;;;;;;7.79;100.00;95775.16;10520089;28;2862;-69
2024/03/14 00:51:50;;;;;;;;;;;;;;;7.63;100.00;95776.06;10518088;28;2841;-67
2024/03/14 00:56:53;;;;;;;;;;;;;;;7.56;100.00;95771.75;10517456;28;2813;-71
2024/03/14 01:01:56;;;;;;;;;;;;;;;7.53;100.00;95774.94;10513741;28;2948;-70
2024/03/14 01:06:59;;;;;;;;;;;;;;;7.46;100.00;95770.84;10511758;28;2942;-68
2024/03/14 01:12:01;;;;;;;;;;;;;;;7.36;100.00;95766.22;10510704;28;2864;-68
2024/03/14 01:17:04;;;;;;;;;;;;;;;7.36;100.00;95755.50;10505132;28;2903;-68
2024/03/14 01:22:07;;;;;;;;;;;;;;;7.26;100.00;95747.41;10503743;28;2828;-68
2024/03/14 01:27:10;;;;;;;;;;;;;;;7.20;100.00;95740.41;10503453;28;2828;-67
2024/03/14 01:32:12;;;;;;;;;;;;;;;7.19;100.00;95738.75;10512465;28;2855;-68
2024/03/14 01:37:15;;;;;;;;;;;;;;;7.13;100.00;95734.47;10504586;28;2998;-68
2024/03/14 01:42:18;;;;;;;;;;;;;;;7.18;100.00;95732.59;10505647;28;2816;-68
2024/03/14 01:47:21;;;;;;;;;;;;;;;7.15;100.00;95724.31;10523457;28;2432;-70
2024/03/14 01:52:24;;;;;;;;;;;;;;;7.12;100.00;95722.13;10506082;28;2860;-69
2024/03/14 01:57:27;;;;;;;;;;;;;;;7.04;100.00;95718.84;10511254;28;2910;-67
2024/03/14 02:02:29;;;;;;;;;;;;;;;6.95;100.00;95717.69;10512812;28;2879;-67
2024/03/14 02:07:32;;;;;;;;;;;;;;;6.91;100.00;95705.88;10502701;28;2940;-66
2024/03/14 02:12:35;;;;;;;;;;;;;;;6.85;100.00;95709.56;10535855;27;2903;-68
2024/03/14 02:17:37;;;;;;;;;;;;;;;6.81;100.00;95700.47;10508721;28;2892;-69
2024/03/14 02:22:40;;;;;;;;;;;;;;;6.79;100.00;95702.56;10511786;28;2864;-68
2024/03/14 02:27:42;;;;;;;;;;;;;;;6.74;100.00;95697.16;10507671;28;2930;-67
2024/03/14 02:32:45;;;;;;;;;;;;;;;6.81;100.00;95699.63;10506281;28;2887;-70
2024/03/14 02:37:48;;;;;;;;;;;;;;;6.85;100.00;95696.22;10505956;28;2780;-68
2024/03/14 02:42:50;;;;;;;;;;;;;;;6.77;100.00;95684.13;10506459;28;3016;-68
2024/03/14 02:47:54;;;;;;;;;;;;;;;6.81;100.00;95684.44;10546782;27;2857;-67
2024/03/14 02:52:57;;;;;;;;;;;;;;;6.80;100.00;95679.31;10507668;28;2828;-68
2024/03/14 02:58:01;;;;;;;;;;;;;;;6.84;100.00;95673.22;10507284;28;2889;-67
2024/03/14 03:03:03;;;;;;;;;;;;;;;6.81;100.00;95663.06;10512455;28;2908;-68
2024/03/14 03:08:08;;;;;;;;;;;;;;;6.75;100.00;95661.38;10502220;28;2924;-68
2024/03/14 03:13:11;;;;;;;;;;;;;;;6.66;100.00;95657.53;10504694;28;2856;-68
2024/03/14 03:18:14;;;;;;;;;;;;;;;6.59;100.00;95667.63;10492896;28;2852;-68
2024/03/14 03:23:17;;;;;;;;;;;;;;;6.49;100.00;95674.47;10505995;28;2893;-65
2024/03/14 03:28:21;;;;;;;;;;;;;;;6.41;100.00;95674.88;10507571;28;2873;-68
2024/03/14 03:33:29;;;;;;;;;;;;;;;6.33;100.00;95667.34;10498299;28;2809;-67
2024/03/14 03:38:33;;;;;;;;;;;;;;;6.25;100.00;95669.63;10511370;28;2855;-66
2024/03/14 03:43:35;;;;;;;;;;;;;;;6.25;100.00;95664.31;10513438;28;2812;-66
2024/03/14 03:48:38;;;;;;;;;;;;;;;6.16;100.00;95677.25;10513883;28;2827;-66
2024/03/14 03:53:42;;;;;;;;;;;;;;;6.18;100.00;95664.50;10511114;28;2881;-67
2024/03/14 03:58:45;;;;;;;;;;;;;;;6.18;100.00;95667.16;10514515;28;2800;-68
2024/03/14 04:03:47;;;;;;;;;;;;;;;6.14;100.00;95674.03;10512555;28;2920;-68
2024/03/14 04:08:52;;;;;;;;;;;;;;;6.16;100.00;95679.91;10510245;28;2879;-67
2024/03/14 04:13:55;;;;;;;;;;;;;;;6.23;100.00;95675.19;10517001;28;2835;-67
2024/03/14 04:18:58;;;;;;;;;;;;;;;6.36;100.00;95669.50;10516021;28;2805;-70
2024/03/14 04:24:01;;;;;;;;;;;;;;;6.39;100.00;95666.34;10508718;28;2835;-67
2024/03/14 04:29:06;;;;;;;;;;;;;;;6.38;100.00;95658.59;10511774;28;2845;-68
2024/03/14 04:34:09;;;;;;;;;;;;;;;6.29;100.00;95654.72;10511562;28;2812;-66
2024/03/14 04:39:14;;;;;;;;;;;;;;;6.29;100.00;95655.53;10511260;28;2896;-66
2024/03/14 04:44:17;;;;;;;;;;;;;;;6.28;100.00;95648.56;10510073;28;2836;-66
2024/03/14 04:49:21;;;;;;;;;;;;;;;6.32;100.00;95644.38;10510036;28;2845;-66
2024/03/14 04:54:24;;;;;;;;;;;;;;;6.33;100.00;95647.84;10511010;28;2933;-66
2024/03/14 04:59:27;;;;;;;;;;;;;;;6.32;100.00;95654.25;10512519;28;2954;-68
2024/03/14 05:04:30;;;;;;;;;;;;;;;6.28;100.00;95663.78;10512440;28;2890;-67
2024/03/14 05:09:33;;;;;;;;;;;;;;;6.41;100.00;95660.75;10507721;28;2867;-69
2024/03/14 05:14:37;;;;;;;;;;;;;;;6.63;100.00;95655.38;10510735;28;2921;-66
2024/03/14 05:19:40;;;;;;;;;;;;;;;6.72;100.00;95643.19;10509269;28;3003;-67
2024/03/14 05:24:42;;;;;;;;;;;;;;;6.73;100.00;95650.13;10512606;28;2816;-68
2024/03/14 05:29:46;;;;;;;;;;;;;;;6.77;100.00;95651.25;10507937;28;2991;-67
2024/03/14 05:34:49;;;;;;;;;;;;;;;6.76;100.00;95665.66;10513148;28;2835;-67
2024/03/14 05:39:52;;;;;;;;;;;;;;;6.80;100.00;95658.75;10503685;28;2832;-67
2024/03/14 05:44:55;;;;;;;;;;;;;;;6.92;100.00;95659.41;10511483;28;2852;-67
2024/03/14 05:49:59;;;;;;;;;;;;;;;6.99;100.00;95661.88;10509017;28;2854;-69
2024/03/14 05:55:08;;;;;;;;;;;;;;;7.02;100.00;95658.69;10507014;28;2832;-68
2024/03/14 06:00:11;;;;;;;;;;;;;;;7.04;100.00;95662.72;10510835;28;2987;-68
2024/03/14 06:05:15;;;;;;;;;;;;;;;7.15;100.00;95658.28;10501082;28;2840;-67
2024/03/14 06:10:18;;;;;;;;;;;;;;;7.34;100.00;95656.03;10503139;28;2891;-68
2024/03/14 06:15:21;;;;;;;;;;;;;;;7.39;100.00;95674.00;10497266;28;2903;-66
2024/03/14 06:20:24;;;;;;;;;;;;;;;7.44;100.00;95668.66;10511744;28;2938;-68
2024/03/14 06:25:28;;;;;;;;;;;;;;;7.62;100.00;95673.59;10505421;28;2831;-67
2024/03/14 06:30:40;;;;;;;;;;;;;;;7.81;100.00;95677.47;10509136;28;2808;-66
2024/03/14 06:35:42;;;;;;;;;;;;;;;8.15;100.00;95673.69;10514587;28;2920;-70
2024/03/14 06:40:45;;;;;;;;;;;;;;;8.32;100.00;95671.59;10512589;28;2900;-75
2024/03/14 06:45:48;;;;;;;;;;;;;;;8.39;100.00;95666.81;10506588;28;2808;-73
2024/03/14 06:50:51;;;;;;;;;;;;;;;8.41;100.00;95672.75;10537569;27;2856;-70
2024/03/14 06:55:53;;;;;;;;;;;;;;;8.75;100.00;95680.34;10513125;28;2836;-67
2024/03/14 07:00:56;;;;;;;;;;;;;;;8.85;100.00;95680.38;10508697;28;2811;-69
2024/03/14 07:05:59;;;;;;;;;;;;;;;9.16;100.00;95671.34;10510490;28;3009;-67
2024/03/14 07:11:02;;;;;;;;;;;;;;;9.38;100.00;95662.22;10502245;28;3092;-68
2024/03/14 07:16:09;;;;;;;;;;;;;;;9.43;100.00;95675.63;10506636;28;2850;-68
2024/03/14 07:21:12;;;;;;;;;;;;;;;9.53;100.00;95674.81;10510380;28;2875;-66
2024/03/14 07:26:17;;;;;;;;;;;;;;;9.82;100.00;95669.69;10516033;28;2874;-67
2024/03/14 07:31:20;;;;;;;;;;;;;;;9.80;100.00;95669.97;10523383;28;2801;-69
2024/03/14 07:36:24;;;;;;;;;;;;;;;9.95;100.00;95677.19;10520124;28;2793;-68
2024/03/14 07:41:27;;;;;;;;;;;;;;;10.28;100.00;95678.47;10507205;28;2833;-68
2024/03/14 07:46:31;;;;;;;;;;;;;;;10.23;100.00;95673.09;10518293;28;2941;-68
2024/03/14 07:51:35;;;;;;;;;;;;;;;10.00;100.00;95679.88;10523734;28;2807;-69
2024/03/14 07:56:38;;;;;;;;;;;;;;;10.09;100.00;95675.53;10520780;28;2928;-68
2024/03/14 08:01:45;;;;;;;;;;;;;;;10.22;100.00;95680.34;10515933;28;2831;-67
2024/03/14 08:06:49;;;;;;;;;;;;;;;10.60;100.00;95672.69;10511968;28;2953;-69
2024/03/14 08:11:51;;;;;;;;;;;;;;;10.69;100.00;95670.25;10547380;27;2821;-68
2024/03/14 08:16:54;;;;;;;;;;;;;;;10.75;100.00;95669.13;10519929;28;2812;-69
2024/03/14 08:21:57;;;;;;;;;;;;;;;10.68;100.00;95664.06;10517716;28;2896;-68
2024/03/14 08:26:59;;;;;;;;;;;;;;;10.69;100.00;95654.13;10515399;28;2816;-68
2024/03/14 08:32:03;;;;;;;;;;;;;;;11.25;100.00;95662.63;10510213;28;2804;-68
2024/03/14 08:37:06;;;;;;;;;;;;;;;11.21;100.00;95656.22;10549721;27;2843;-76
2024/03/14 08:42:09;;;;;;;;;;;;;;;11.41;100.00;95659.84;10516639;28;2812;-71
2024/03/14 08:47:11;;;;;;;;;;;;;;;11.08;100.00;95656.84;10515887;28;3197;-66
2024/03/14 08:52:15;;;;;;;;;;;;;;;11.20;100.00;95665.38;10514206;28;2939;-68
2024/03/14 08:57:18;;;;;;;;;;;;;;;11.64;100.00;95669.88;10518180;28;2871;-68
2024/03/14 09:02:22;;;;;;;;;;;;;;;11.99;100.00;95670.66;10513110;28;2950;-67
2024/03/14 09:07:24;;;;;;;;;;;;;;;12.79;100.00;95667.31;10515715;28;2894;-69
2024/03/14 09:12:27;;;;;;;;;;;;;;;12.66;100.00;95658.03;10511973;28;2939;-68
2024/03/14 09:17:30;;;;;;;;;;;;;;;12.49;100.00;95649.63;10517956;28;2874;-66
2024/03/14 09:22:32;;;;;;;;;;;;;;;12.60;100.00;95651.13;10511837;28;2839;-70
2024/03/14 09:27:35;;;;;;;;;;;;;;;12.93;100.00;95644.75;10510810;28;3012;-69
2024/03/14 09:32:39;;;;;;;;;;;;;;;13.34;100.00;95641.47;10519206;28;2864;-69
2024/03/14 09:37:43;;;;;;;;;;;;;;;12.50;100.00;95645.84;10509910;28;2827;-68
2024/03/14 09:42:47;;;;;;;;;;;;;;;12.53;100.00;95647.94;10514592;28;2805;-67
2024/03/14 09:47:50;;;;;;;;;;;;;;;12.57;100.00;95643.59;10512112;28;2776;-68
2024/03/14 09:52:53;;;;;;;;;;;;;;;12.42;100.00;95642.69;10506790;28;2856;-67
2024/03/14 09:57:56;;;;;;;;;;;;;;;12.57;100.00;95640.91;10506834;28;2898;-68
2024/03/14 10:03:00;;;;;;;;;;;;;;;12.79;100.00;95629.53;10513939;28;2800;-71
2024/03/14 10:08:04;;;;;;;;;;;;;;;12.86;100.00;95630.81;10515623;28;2845;-67
2024/03/14 10:13:07;;;;;;;;;;;;;;;12.95;100.00;95626.34;10508537;28;2899;-67
2024/03/14 10:18:12;;;;;;;;;;;;;;;12.91;100.00;95628.03;10509368;28;3051;-69
2024/03/14 10:23:16;;;;;;;;;;;;;;;13.11;100.00;95620.75;10520452;28;2753;-65
2024/03/14 10:28:20;;;;;;;;;;;;;;;13.06;100.00;95615.44;10511605;28;2817;-68
2024/03/14 10:33:26;;;;;;;;;;;;;;;13.34;100.00;95614.47;10508843;28;2859;-68
2024/03/14 10:38:35;;;;;;;;;;;;;;;13.74;100.00;95607.59;10508350;28;2920;-67
2024/03/14 10:43:39;;;;;;;;;;;;;;;14.01;100.00;95606.81;10509547;28;2873;-68
2024/03/14 10:48:44;;;;;;;;;;;;;;;13.37;100.00;95608.47;10505208;28;3237;-68
2024/03/14 10:53:49;;;;;;;;;;;;;;;13.47;100.00;95611.00;10508646;28;2869;-67
2024/03/14 10:58:54;;;;;;;;;;;;;;;13.30;100.00;95605.38;10542527;27;2968;-68
2024/03/14 11:03:57;;;;;;;;;;;;;;;13.38;100.00;95599.28;10513315;28;2883;-67
2024/03/14 11:09:06;;;;;;;;;;;;;;;13.95;100.00;95594.50;10509384;28;2946;-68
2024/03/14 11:14:11;;;;;;;;;;;;;;;14.04;100.00;95586.50;10509846;28;2910;-68
2024/03/14 11:19:16;;;;;;;;;;;;;;;14.26;100.00;95575.00;10503439;28;2875;-68
2024/03/14 11:24:21;;;;;;;;;;;;;;;14.32;100.00;95576.50;10510649;28;2831;-73
2024/03/14 11:29:24;;;;;;;;;;;;;;;14.46;100.00;95568.34;10503349;28;2877;-72
2024/03/14 11:34:26;;;;;;;;;;;;;;;14.83;100.00;95570.00;10506297;28;2876;-70
2024/03/14 11:39:30;;;;;;;;;;;;;;;14.88;100.00;95559.06;10509142;28;2829;-68
2024/03/14 11:44:33;;;;;;;;;;;;;;;14.45;100.00;95562.16;10503471;28;2891;-69
2024/03/14 11:49:36;;;;;;;;;;;;;;;14.05;100.00;95553.75;10509266;28;2773;-67
2024/03/14 11:54:40;;;;;;;;;;;;;;;13.72;100.00;95544.94;10513352;28;2848;-68
2024/03/14 11:59:45;;;;;;;;;;;;;;;14.62;100.00;95544.50;10502845;28;2958;-67
2024/03/14 12:04:54;;;;;;;;;;;;;;;15.07;100.00;95542.63;10510896;28;2963;-67
2024/03/14 12:10:00;;;;;;;;;;;;;;;15.44;100.00;95532.53;10511468;28;2906;-67
2024/03/14 12:15:03;;;;;;;;;;;;;;;14.96;100.00;95525.06;10516773;28;2801;-68
2024/03/14 12:20:06;;;;;;;;;;;;;;;15.45;100.00;95523.28;10522358;28;2793;-68
2024/03/14 12:25:09;;;;;;;;;;;;;;;15.35;100.00;95508.91;10521137;28;2788;-68
2024/03/14 12:30:11;;;;;;;;;;;;;;;15.33;100.00;95503.03;10510961;28;2872;-68
2024/03/14 12:35:14;;;;;;;;;;;;;;;15.15;100.00;95495.91;10508020;28;2813;-68
2024/03/14 12:40:19;;;;;;;;;;;;;;;15.36;100.00;95493.47;10516414;28;3280;-68
2024/03/14 12:45:25;;;;;;;;;;;;;;;15.85;100.00;95494.38;10513330;28;2947;-68
2024/03/14 12:50:28;;;;;;;;;;;;;;;16.11;100.00;95487.09;10516396;28;2844;-68
2024/03/14 12:55:31;;;;;;;;;;;;;;;16.10;100.00;95484.72;10503596;28;3027;-71
2024/03/14 13:00:33;;;;;;;;;;;;;;;16.17;100.00;95474.19;10514189;28;3453;-69
2024/03/14 13:05:36;;;;;;;;;;;;;;;16.10;100.00;95473.88;10515208;28;2820;-68
2024/03/14 13:10:41;;;;;;;;;;;;;;;16.14;100.00;95475.59;10516242;28;2879;-68
2024/03/14 13:15:46;;;;;;;;;;;;;;;16.44;100.00;95471.19;10513200;28;2941;-68
2024/03/14 13:20:49;;;;;;;;;;;;;;;16.25;100.00;95459.06;10509211;28;3295;-69
2024/03/14 13:25:53;;;;;;;;;;;;;;;16.70;100.00;95449.53;10516732;28;2882;-69
2024/03/14 13:30:56;;;;;;;;;;;;;;;16.34;100.00;95451.72;10513074;28;2801;-71
2024/03/14 13:36:00;;;;;;;;;;;;;;;16.27;100.00;95445.97;10509208;28;2836;-72
2024/03/14 13:41:02;;;;;;;;;;;;;;;16.00;100.00;95437.00;10511027;28;2856;-71
2024/03/14 13:46:05;;;;;;;;;;;;;;;15.82;100.00;95446.19;10513592;28;2916;-75
2024/03/14 13:51:08;;;;;;;;;;;;;;;15.99;100.00;95438.09;10520516;28;2891;-71
2024/03/14 13:56:13;;;;;;;;;;;;;;;16.31;100.00;95439.59;10513259;28;2911;-72
2024/03/14 14:01:19;;;;;;;;;;;;;;;16.11;100.00;95438.28;10513230;28;2919;-70
2024/03/14 14:06:23;;;;;;;;;;;;;;;16.29;100.00;95428.28;10512433;28;2907;-74
2024/03/14 14:11:27;;;;;;;;;;;;;;;16.41;100.00;95431.16;10516465;28;2873;-67
2024/03/14 14:16:31;;;;;;;;;;;;;;;16.62;100.00;95425.88;10510490;28;2948;-68
2024/03/14 14:21:37;;;;;;;;;;;;;;;16.55;100.00;95420.13;10507339;28;2877;-70
2024/03/14 14:26:40;;;;;;;;;;;;;;;16.62;100.00;95420.44;10512284;28;2910;-68
2024/03/14 14:31:44;;;;;;;;;;;;;;;16.49;100.00;95418.69;10506306;28;2846;-69
2024/03/14 14:36:46;;;;;;;;;;;;;;;16.00;100.00;95411.78;10502079;28;2887;-70
2024/03/14 14:41:49;;;;;;;;;;;;;;;16.05;100.00;95404.31;10505488;28;2876;-69
2024/03/14 14:46:52;;;;;;;;;;;;;;;16.02;100.00;95394.09;10506840;28;2872;-68
2024/03/14 14:51:55;;;;;;;;;;;;;;;16.01;100.00;95394.41;10501919;28;2956;-68
2024/03/14 14:56:58;;;;;;;;;;;;;;;15.93;100.00;95390.59;10501935;28;2839;-68
2024/03/14 15:02:04;;;;;;;;;;;;;;;15.46;100.00;95387.56;10509879;28;3253;-67
2024/03/14 15:07:07;;;;;;;;;;;;;;;15.59;100.00;95383.16;10506366;28;2803;-68
2024/03/14 15:12:10;;;;;;;;;;;;;;;15.28;100.00;95384.00;10508098;28;2928;-67
2024/03/14 15:17:16;;;;;;;;;;;;;;;15.25;100.00;95375.69;10505171;28;3040;-69
2024/03/14 15:22:19;;;;;;;;;;;;;;;15.27;100.00;95370.75;10508653;28;2863;-70
2024/03/14 15:27:22;;;;;;;;;;;;;;;15.35;100.00;95373.50;10510584;28;2922;-71
2024/03/14 15:32:27;;;;;;;;;;;;;;;15.20;100.00;95368.50;10543525;27;2852;-68
2024/03/14 15:37:32;;;;;;;;;;;;;;;15.16;100.00;95364.03;10508185;28;2840;-69
2024/03/14 15:42:35;;;;;;;;;;;;;;;15.26;100.00;95374.56;10506147;28;2812;-67
2024/03/14 15:47:40;;;;;;;;;;;;;;;14.96;100.00;95365.38;10517578;28;2963;-68
2024/03/14 15:52:44;;;;;;;;;;;;;;;14.80;100.00;95367.66;10521362;28;2895;-70
2024/03/14 15:57:47;;;;;;;;;;;;;;;14.73;100.00;95360.00;10517797;28;2859;-68
2024/03/14 16:02:50;;;;;;;;;;;;;;;14.56;100.00;95368.00;10513833;28;2888;-67
2024/03/14 16:07:53;;;;;;;;;;;;;;;14.42;100.00;95361.84;10509910;28;2811;-66
2024/03/14 16:12:55;;;;;;;;;;;;;;;14.26;100.00;95359.50;10516328;28;2793;-69
2024/03/14 16:17:59;;;;;;;;;;;;;;;14.17;100.00;95349.72;10516971;28;2858;-71
2024/03/14 16:23:03;;;;;;;;;;;;;;;14.09;100.00;95339.66;10519110;28;2819;-68
2024/03/14 16:28:08;;;;;;;;;;;;;;;13.90;100.00;95343.31;10512858;28;2847;-68
2024/03/14 16:33:12;;;;;;;;;;;;;;;13.86;100.00;95339.59;10512592;28;2932;-68
2024/03/14 16:38:15;;;;;;;;;;;;;;;13.76;100.00;95335.25;10510900;28;2780;-68
2024/03/14 16:43:18;;;;;;;;;;;;;;;13.61;100.00;95338.25;10516990;28;2879;-71
2024/03/14 16:48:21;;;;;;;;;;;;;;;13.45;100.00;95335.09;10519166;28;2800;-69
2024/03/14 16:53:24;;;;;;;;;;;;;;;13.39;100.00;95336.31;10511926;28;2856;-67
2024/03/14 16:58:29;;;;;;;;;;;;;;;13.21;100.00;95334.50;10508438;28;2791;-68
2024/03/14 17:03:31;;;;;;;;;;;;;;;12.98;100.00;95326.31;10519771;28;2792;-71
2024/03/14 17:08:34;;;;;;;;;;;;;;;12.90;100.00;95340.47;10514748;28;2792;-68
2024/03/14 17:13:37;;;;;;;;;;;;;;;12.64;100.00;95342.03;10512113;28;2883;-67
2024/03/14 17:18:41;;;;;;;;;;;;;;;12.64;100.00;95336.63;10540900;27;2897;-69
2024/03/14 17:23:44;;;;;;;;;;;;;;;12.43;100.00;95337.00;10515486;28;2934;-69
2024/03/14 17:28:48;;;;;;;;;;;;;;;12.26;100.00;95344.81;10522241;28;2839;-71
2024/03/14 17:33:52;;;;;;;;;;;;;;;12.17;100.00;95338.50;10516204;28;2828;-71
2024/03/14 17:38:58;;;;;;;;;;;;;;;11.94;100.00;95337.50;10513680;28;2856;-69
2024/03/14 17:44:01;;;;;;;;;;;;;;;11.94;100.00;95342.09;10517636;28;2863;-69
2024/03/14 17:49:05;;;;;;;;;;;;;;;11.73;100.00;95338.88;10519698;28;2781;-66
2024/03/14 17:54:08;;;;;;;;;;;;;;;11.87;100.00;95345.97;10505446;28;2792;-68
2024/03/14 17:59:11;;;;;;;;;;;;;;;11.81;100.00;95349.81;10503710;28;2902;-66
2024/03/14 18:04:13;;;;;;;;;;;;;;;11.56;100.00;95348.25;10501829;28;3432;-66
2024/03/14 18:09:17;;;;;;;;;;;;;;;11.41;100.00;95350.34;10505359;28;2832;-65
2024/03/14 18:14:20;;;;;;;;;;;;;;;11.48;100.00;95348.91;10504341;28;2808;-66
2024/03/14 18:19:23;;;;;;;;;;;;;;;11.48;100.00;95356.16;10507773;28;2873;-66
2024/03/14 18:24:29;;;;;;;;;;;;;;;11.29;100.00;95346.19;10506381;28;2836;-67
2024/03/14 18:29:32;;;;;;;;;;;;;;;11.22;100.00;95351.09;10510880;28;2805;-67
2024/03/14 18:34:34;;;;;;;;;;;;;;;11.11;100.00;95360.38;10505116;28;2895;-67
2024/03/14 18:39:37;;;;;;;;;;;;;;;11.00;100.00;95359.69;10515859;28;2643;-67
2024/03/14 18:44:47;;;;;;;;;;;;;;;10.93;100.00;95358.44;10515876;28;1996;-67
2024/03/14 18:49:50;;;;;;;;;;;;;;;10.83;100.00;95357.47;10516552;28;2045;-68
2024/03/14 18:54:53;;;;;;;;;;;;;;;10.80;100.00;95357.22;10516421;28;2382;-68
2024/03/14 18:59:56;;;;;;;;;;;;;;;11.04;100.00;95354.56;10508148;28;1906;-74
2024/03/14 19:04:59;;;;;;;;;;;;;;;11.08;100.00;95353.69;10514207;28;1487;-68
2024/03/14 19:10:02;;;;;;;;;;;;;;;10.89;100.00;95352.03;10514027;28;1963;-74
2024/03/14 19:15:05;;;;;;;;;;;;;;;10.69;100.00;95353.84;10520784;28;1897;-75
2024/03/14 19:20:08;;;;;;;;;;;;;;;10.52;100.00;95348.91;10528715;28;1839;-66
2024/03/14 19:25:11;;;;;;;;;;;;;;;10.51;100.00;95351.88;10529758;28;2057;-66
2024/03/14 19:30:14;;;;;;;;;;;;;;;10.26;100.00;95359.06;10534969;28;1976;-66
2024/03/14 19:35:17;;;;;;;;;;;;;;;10.13;100.00;95364.25;10527141;28;1859;-70
2024/03/14 19:40:20;;;;;;;;;;;;;;;10.09;100.00;95358.63;10521446;28;1395;-67
2024/03/14 19:45:23;;;;;;;;;;;;;;;9.99;100.00;95358.72;10529224;28;2507;-71
2024/03/14 19:50:25;;;;;;;;;;;;;;;9.89;100.00;95356.09;10520903;28;1913;-72
2024/03/14 19:55:30;;;;;;;;;;;;;;;9.89;100.00;95351.53;10529445;28;1807;-66
2024/03/14 20:00:32;;;;;;;;;;;;;;;9.91;100.00;95343.19;10523413;28;2069;-66
2024/03/14 20:05:35;;;;;;;;;;;;;;;9.88;100.00;95339.19;10520464;28;1939;-68
2024/03/14 20:10:37;;;;;;;;;;;;;;;9.81;100.00;95332.53;10518527;28;1898;-67
2024/03/14 20:15:40;;;;;;;;;;;;;;;9.81;100.00;95337.91;10516250;28;2868;-66
2024/03/14 20:20:42;;;;;;;;;;;;;;;9.72;100.00;95330.41;10515458;28;2793;-67
2024/03/14 20:25:47;;;;;;;;;;;;;;;9.79;100.00;95337.38;10515419;28;2951;-66
2024/03/14 20:30:50;;;;;;;;;;;;;;;9.83;100.00;95333.06;10510283;28;2851;-68
2024/03/14 20:35:54;;;;;;;;;;;;;;;9.66;100.00;95339.59;10507523;28;2813;-66
2024/03/14 20:40:57;;;;;;;;;;;;;;;9.59;100.00;95330.25;10504358;28;2858;-68
2024/03/14 20:46:00;;;;;;;;;;;;;;;9.57;100.00;95332.41;10503301;28;2836;-67
2024/03/14 20:51:03;;;;;;;;;;;;;;;9.55;100.00;95330.00;10504941;28;3216;-67
2024/03/14 20:56:07;;;;;;;;;;;;;;;9.40;100.00;95335.44;10514028;28;2846;-68
2024/03/14 21:01:10;;;;;;;;;;;;;;;9.31;100.00;95339.81;10506402;28;2887;-67
2024/03/14 21:06:12;;;;;;;;;;;;;;;9.16;100.00;95333.44;10502637;28;3004;-67
2024/03/14 21:11:15;;;;;;;;;;;;;;;9.07;100.00;95334.28;10498128;28;2929;-67
2024/03/14 21:16:22;;;;;;;;;;;;;;;9.04;100.00;95341.00;10502280;28;2830;-65
2024/03/14 21:21:27;;;;;;;;;;;;;;;8.97;100.00;95339.66;10501795;28;2843;-67
2024/03/14 21:26:30;;;;;;;;;;;;;;;8.95;100.00;95331.91;10506735;28;2804;-66
2024/03/14 21:31:33;;;;;;;;;;;;;;;8.96;100.00;95340.75;10497920;28;2884;-67
2024/03/14 21:36:36;;;;;;;;;;;;;;;8.88;100.00;95342.09;10496437;28;3200;-67
2024/03/14 21:41:40;;;;;;;;;;;;;;;8.92;100.00;95343.97;10507717;28;2929;-67
2024/03/14 21:46:44;;;;;;;;;;;;;;;8.80;100.00;95342.69;10502722;28;2887;-66
2024/03/14 21:51:54;;;;;;;;;;;;;;;8.75;100.00;95353.41;10505571;28;2965;-68
2024/03/14 21:56:57;;;;;;;;;;;;;;;8.60;100.00;95347.00;10501762;28;3260;-65
2024/03/14 22:02:00;;;;;;;;;;;;;;;8.58;100.00;95351.81;10495714;28;2850;-69
2024/03/14 22:07:02;;;;;;;;;;;;;;;8.52;100.00;95352.91;10499840;28;2935;-67
2024/03/14 22:12:05;;;;;;;;;;;;;;;8.58;100.00;95357.19;10502487;28;2795;-66
2024/03/14 22:17:08;;;;;;;;;;;;;;;8.56;100.00;95351.28;10522844;28;2759;-75
2024/03/14 22:22:13;;;;;;;;;;;;;;;8.51;100.00;95355.84;10509416;28;2088;-67
2024/03/14 22:27:15;;;;;;;;;;;;;;;8.50;100.00;95362.28;10511622;28;1926;-67
2024/03/14 22:32:18;;;;;;;;;;;;;;;8.32;100.00;95360.94;10519391;28;2714;-66
2024/03/14 22:37:20;;;;;;;;;;;;;;;8.25;100.00;95360.41;10511422;28;2635;-66
2024/03/14 22:42:23;;;;;;;;;;;;;;;8.19;100.00;95358.81;10517358;28;1977;-67
2024/03/14 22:47:27;;;;;;;;;;;;;;;8.20;100.00;95363.06;10518019;28;1979;-64
2024/03/14 22:52:30;;;;;;;;;;;;;;;8.06;100.00;95360.13;10517623;28;1435;-65
2024/03/14 22:57:33;;;;;;;;;;;;;;;8.00;100.00;95364.69;10511115;28;1878;-66
2024/03/14 23:02:37;;;;;;;;;;;;;;;7.90;100.00;95359.34;10516859;28;1854;-69
2024/03/14 23:07:40;;;;;;;;;;;;;;;7.73;100.00;95350.75;10544814;27;2011;-70
2024/03/14 23:12:42;;;;;;;;;;;;;;;7.63;100.00;95361.41;10507599;28;1872;-68
2024/03/14 23:17:46;;;;;;;;;;;;;;;7.56;100.00;95354.47;10513052;28;1862;-70
2024/03/14 23:22:49;;;;;;;;;;;;;;;7.56;100.00;95356.31;10519443;28;1522;-69
2024/03/14 23:27:52;;;;;;;;;;;;;;;7.47;100.00;95369.44;10514737;28;1912;-66
2024/03/14 23:32:55;;;;;;;;;;;;;;;7.45;100.00;95374.25;10508890;28;2505;-67
2024/03/14 23:37:58;;;;;;;;;;;;;;;7.39;100.00;95369.16;10506906;28;2120;-67
2024/03/14 23:43:01;;;;;;;;;;;;;;;7.27;100.00;95366.69;10504360;28;1992;-68
2024/03/14 23:48:03;;;;;;;;;;;;;;;7.32;100.00;95372.88;10502061;28;2080;-67
2024/03/14 23:53:06;;;;;;;;;;;;;;;7.28;100.00;95371.78;10507994;28;2055;-66
2024/03/14 23:58:09;;;;;;;;;;;;;;;7.23;100.00;95371.75;10509175;28;2060;-70
